sensor_id;sensor_type;location;lat;lon;timestamp;P1;durP1;ratioP1;P2;durP2;ratioP2
59093;SDS011;44880;52.814;18.270;2023-09-12T00:01:39;29.90;;;24.70;;
59093;SDS011;44880;52.814;18.270;2023-09-12T00:04:11;34.30;;;25.90;;
59093;SDS011;44880;52.814;18.270;2023-09-12T00:06:43;33.80;;;24.50;;
59093;SDS011;44880;52.814;18.270;2023-09-12T00:11:45;32.80;;;23.90;;
59093;SDS011;44880;52.814;18.270;2023-09-12T00:14:17;29.90;;;23.60;;
59093;SDS011;44880;52.814;18.270;2023-09-12T00:16:49;28.30;;;22.30;;
59093;SDS011;44880;52.814;18.270;2023-09-12T00:19:23;33.00;;;23.80;;
59093;SDS011;44880;52.814;18.270;2023-09-12T00:21:55;30.30;;;23.40;;
59093;SDS011;44880;52.814;18.270;2023-09-12T00:24:27;37.20;;;24.50;;
59093;SDS011;44880;52.814;18.270;2023-09-12T00:26:59;32.10;;;23.80;;
59093;SDS011;44880;52.814;18.270;2023-09-12T00:29:33;33.80;;;24.40;;
59093;SDS011;44880;52.814;18.270;2023-09-12T00:32:05;35.20;;;24.80;;
59093;SDS011;44880;52.814;18.270;2023-09-12T00:34:37;32.90;;;24.80;;
59093;SDS011;44880;52.814;18.270;2023-09-12T00:37:08;33.30;;;25.30;;
59093;SDS011;44880;52.814;18.270;2023-09-12T00:42:10;31.30;;;23.30;;
59093;SDS011;44880;52.814;18.270;2023-09-12T00:44:42;30.80;;;23.00;;
59093;SDS011;44880;52.814;18.270;2023-09-12T00:47:14;31.30;;;23.50;;
59093;SDS011;44880;52.814;18.270;2023-09-12T00:49:46;31.10;;;24.20;;
59093;SDS011;44880;52.814;18.270;2023-09-12T00:52:19;30.40;;;24.20;;
59093;SDS011;44880;52.814;18.270;2023-09-12T00:54:51;33.60;;;25.90;;
59093;SDS011;44880;52.814;18.270;2023-09-12T00:59:52;33.10;;;25.10;;
59093;SDS011;44880;52.814;18.270;2023-09-12T01:02:25;34.00;;;26.20;;
59093;SDS011;44880;52.814;18.270;2023-09-12T01:07:27;33.90;;;25.60;;
59093;SDS011;44880;52.814;18.270;2023-09-12T01:09:59;32.50;;;25.00;;
59093;SDS011;44880;52.814;18.270;2023-09-12T01:12:32;31.50;;;23.90;;
59093;SDS011;44880;52.814;18.270;2023-09-12T01:17:42;31.80;;;22.60;;
59093;SDS011;44880;52.814;18.270;2023-09-12T01:20:16;33.50;;;22.10;;
59093;SDS011;44880;52.814;18.270;2023-09-12T01:23:00;32.40;;;24.00;;
59093;SDS011;44880;52.814;18.270;2023-09-12T01:28:33;32.30;;;24.30;;
59093;SDS011;44880;52.814;18.270;2023-09-12T01:31:05;32.20;;;24.10;;
59093;SDS011;44880;52.814;18.270;2023-09-12T01:33:37;30.00;;;23.70;;
59093;SDS011;44880;52.814;18.270;2023-09-12T01:36:09;32.70;;;24.70;;
59093;SDS011;44880;52.814;18.270;2023-09-12T01:41:11;33.80;;;25.10;;
59093;SDS011;44880;52.814;18.270;2023-09-12T01:43:48;35.10;;;25.80;;
59093;SDS011;44880;52.814;18.270;2023-09-12T01:46:21;32.20;;;24.50;;
59093;SDS011;44880;52.814;18.270;2023-09-12T01:48:53;34.00;;;24.70;;
59093;SDS011;44880;52.814;18.270;2023-09-12T01:51:26;34.10;;;23.40;;
59093;SDS011;44880;52.814;18.270;2023-09-12T01:53:59;32.90;;;23.60;;
59093;SDS011;44880;52.814;18.270;2023-09-12T01:56:31;31.10;;;22.50;;
59093;SDS011;44880;52.814;18.270;2023-09-12T02:01:34;33.00;;;25.00;;
59093;SDS011;44880;52.814;18.270;2023-09-12T02:04:06;33.70;;;24.90;;
59093;SDS011;44880;52.814;18.270;2023-09-12T02:06:38;32.00;;;24.60;;
59093;SDS011;44880;52.814;18.270;2023-09-12T02:09:10;35.20;;;25.30;;
59093;SDS011;44880;52.814;18.270;2023-09-12T02:11:41;35.40;;;26.50;;
59093;SDS011;44880;52.814;18.270;2023-09-12T02:14:13;32.50;;;25.20;;
59093;SDS011;44880;52.814;18.270;2023-09-12T02:16:46;31.20;;;24.30;;
59093;SDS011;44880;52.814;18.270;2023-09-12T02:19:22;30.30;;;22.60;;
59093;SDS011;44880;52.814;18.270;2023-09-12T02:21:54;32.90;;;23.50;;
59093;SDS011;44880;52.814;18.270;2023-09-12T02:24:26;32.60;;;23.00;;
59093;SDS011;44880;52.814;18.270;2023-09-12T02:26:58;30.60;;;23.00;;
59093;SDS011;44880;52.814;18.270;2023-09-12T02:29:30;32.50;;;23.90;;
59093;SDS011;44880;52.814;18.270;2023-09-12T02:32:02;36.30;;;25.50;;
59093;SDS011;44880;52.814;18.270;2023-09-12T02:37:04;31.40;;;25.00;;
59093;SDS011;44880;52.814;18.270;2023-09-12T02:39:36;37.10;;;26.60;;
59093;SDS011;44880;52.814;18.270;2023-09-12T02:42:08;33.70;;;24.80;;
59093;SDS011;44880;52.814;18.270;2023-09-12T02:44:39;29.90;;;23.70;;
59093;SDS011;44880;52.814;18.270;2023-09-12T02:47:11;33.80;;;23.40;;
59093;SDS011;44880;52.814;18.270;2023-09-12T02:49:43;29.70;;;22.20;;
59093;SDS011;44880;52.814;18.270;2023-09-12T02:52:15;33.60;;;23.20;;
59093;SDS011;44880;52.814;18.270;2023-09-12T02:54:47;31.00;;;24.30;;
59093;SDS011;44880;52.814;18.270;2023-09-12T02:57:19;33.10;;;23.90;;
59093;SDS011;44880;52.814;18.270;2023-09-12T02:59:51;29.90;;;23.90;;
59093;SDS011;44880;52.814;18.270;2023-09-12T03:02:22;33.40;;;26.70;;
59093;SDS011;44880;52.814;18.270;2023-09-12T03:04:56;33.90;;;26.20;;
59093;SDS011;44880;52.814;18.270;2023-09-12T03:07:30;33.60;;;25.40;;
59093;SDS011;44880;52.814;18.270;2023-09-12T03:10:02;32.80;;;24.00;;
59093;SDS011;44880;52.814;18.270;2023-09-12T03:12:35;35.40;;;26.70;;
59093;SDS011;44880;52.814;18.270;2023-09-12T03:15:07;33.50;;;24.20;;
59093;SDS011;44880;52.814;18.270;2023-09-12T03:17:40;31.10;;;23.30;;
59093;SDS011;44880;52.814;18.270;2023-09-12T03:20:13;34.70;;;24.60;;
59093;SDS011;44880;52.814;18.270;2023-09-12T03:22:45;32.30;;;24.30;;
59093;SDS011;44880;52.814;18.270;2023-09-12T03:25:17;31.50;;;24.20;;
59093;SDS011;44880;52.814;18.270;2023-09-12T03:27:48;35.20;;;25.70;;
59093;SDS011;44880;52.814;18.270;2023-09-12T03:30:21;33.30;;;24.80;;
59093;SDS011;44880;52.814;18.270;2023-09-12T03:32:53;32.10;;;24.60;;
59093;SDS011;44880;52.814;18.270;2023-09-12T03:35:25;32.40;;;25.40;;
59093;SDS011;44880;52.814;18.270;2023-09-12T03:37:56;34.20;;;25.40;;
59093;SDS011;44880;52.814;18.270;2023-09-12T03:42:59;34.20;;;24.30;;
59093;SDS011;44880;52.814;18.270;2023-09-12T03:45:31;35.50;;;25.00;;
59093;SDS011;44880;52.814;18.270;2023-09-12T03:48:03;33.60;;;24.70;;
59093;SDS011;44880;52.814;18.270;2023-09-12T03:53:39;33.80;;;24.70;;
59093;SDS011;44880;52.814;18.270;2023-09-12T03:56:11;32.20;;;25.00;;
59093;SDS011;44880;52.814;18.270;2023-09-12T03:58:43;33.60;;;25.60;;
59093;SDS011;44880;52.814;18.270;2023-09-12T04:01:15;33.50;;;27.00;;
59093;SDS011;44880;52.814;18.270;2023-09-12T04:03:47;34.70;;;26.80;;
59093;SDS011;44880;52.814;18.270;2023-09-12T04:06:19;36.30;;;27.30;;
59093;SDS011;44880;52.814;18.270;2023-09-12T04:08:51;34.10;;;26.00;;
59093;SDS011;44880;52.814;18.270;2023-09-12T04:11:22;34.90;;;25.10;;
59093;SDS011;44880;52.814;18.270;2023-09-12T04:13:54;35.20;;;25.20;;
59093;SDS011;44880;52.814;18.270;2023-09-12T04:16:26;33.20;;;24.70;;
59093;SDS011;44880;52.814;18.270;2023-09-12T04:21:28;35.50;;;27.30;;
59093;SDS011;44880;52.814;18.270;2023-09-12T04:24:00;37.50;;;25.40;;
59093;SDS011;44880;52.814;18.270;2023-09-12T04:26:32;35.10;;;26.80;;
59093;SDS011;44880;52.814;18.270;2023-09-12T04:29:04;34.40;;;26.60;;
59093;SDS011;44880;52.814;18.270;2023-09-12T04:31:35;32.50;;;26.50;;
59093;SDS011;44880;52.814;18.270;2023-09-12T04:34:07;39.40;;;27.20;;
59093;SDS011;44880;52.814;18.270;2023-09-12T04:36:39;35.80;;;26.00;;
59093;SDS011;44880;52.814;18.270;2023-09-12T04:39:11;35.30;;;25.00;;
59093;SDS011;44880;52.814;18.270;2023-09-12T04:44:13;35.00;;;24.90;;
59093;SDS011;44880;52.814;18.270;2023-09-12T04:46:44;35.10;;;25.60;;
59093;SDS011;44880;52.814;18.270;2023-09-12T04:49:17;37.20;;;26.40;;
59093;SDS011;44880;52.814;18.270;2023-09-12T04:51:49;42.50;;;28.80;;
59093;SDS011;44880;52.814;18.270;2023-09-12T04:54:20;43.80;;;31.50;;
59093;SDS011;44880;52.814;18.270;2023-09-12T04:56:53;42.80;;;30.70;;
59093;SDS011;44880;52.814;18.270;2023-09-12T04:59:25;43.60;;;31.70;;
59093;SDS011;44880;52.814;18.270;2023-09-12T05:01:57;43.60;;;28.80;;
59093;SDS011;44880;52.814;18.270;2023-09-12T05:04:30;37.50;;;28.30;;
59093;SDS011;44880;52.814;18.270;2023-09-12T05:07:02;37.10;;;27.00;;
59093;SDS011;44880;52.814;18.270;2023-09-12T05:09:34;35.60;;;25.30;;
59093;SDS011;44880;52.814;18.270;2023-09-12T05:12:06;36.20;;;26.70;;
59093;SDS011;44880;52.814;18.270;2023-09-12T05:14:38;34.90;;;26.20;;
59093;SDS011;44880;52.814;18.270;2023-09-12T05:17:10;35.50;;;28.10;;
59093;SDS011;44880;52.814;18.270;2023-09-12T05:19:42;37.10;;;29.10;;
59093;SDS011;44880;52.814;18.270;2023-09-12T05:24:43;38.50;;;28.60;;
59093;SDS011;44880;52.814;18.270;2023-09-12T05:27:15;37.40;;;28.70;;
59093;SDS011;44880;52.814;18.270;2023-09-12T06:29:20;36.10;;;28.30;;
59093;SDS011;44880;52.814;18.270;2023-09-12T06:31:53;36.10;;;28.10;;
59093;SDS011;44880;52.814;18.270;2023-09-12T06:34:26;36.40;;;27.60;;
59093;SDS011;44880;52.814;18.270;2023-09-12T06:36:57;39.90;;;27.40;;
59093;SDS011;44880;52.814;18.270;2023-09-12T06:39:29;35.40;;;29.30;;
59093;SDS011;44880;52.814;18.270;2023-09-12T06:42:07;38.40;;;29.50;;
59093;SDS011;44880;52.814;18.270;2023-09-12T06:44:39;42.20;;;33.20;;
59093;SDS011;44880;52.814;18.270;2023-09-12T06:49:42;40.90;;;31.60;;
59093;SDS011;44880;52.814;18.270;2023-09-12T06:52:25;44.60;;;34.50;;
59093;SDS011;44880;52.814;18.270;2023-09-12T06:54:57;40.70;;;34.90;;
59093;SDS011;44880;52.814;18.270;2023-09-12T06:57:29;42.70;;;33.00;;
59093;SDS011;44880;52.814;18.270;2023-09-12T07:00:22;40.50;;;32.10;;
59093;SDS011;44880;52.814;18.270;2023-09-12T07:02:55;38.60;;;30.70;;
59093;SDS011;44880;52.814;18.270;2023-09-12T07:05:27;36.10;;;30.20;;
59093;SDS011;44880;52.814;18.270;2023-09-12T07:08:07;39.60;;;31.90;;
59093;SDS011;44880;52.814;18.270;2023-09-12T07:10:44;40.40;;;32.00;;
59093;SDS011;44880;52.814;18.270;2023-09-12T07:13:16;46.80;;;36.20;;
59093;SDS011;44880;52.814;18.270;2023-09-12T07:15:49;51.10;;;37.50;;
59093;SDS011;44880;52.814;18.270;2023-09-12T07:18:21;52.00;;;40.10;;
59093;SDS011;44880;52.814;18.270;2023-09-12T07:20:57;50.80;;;39.30;;
59093;SDS011;44880;52.814;18.270;2023-09-12T07:23:37;53.50;;;38.70;;
59093;SDS011;44880;52.814;18.270;2023-09-12T07:26:11;50.80;;;38.50;;
59093;SDS011;44880;52.814;18.270;2023-09-12T07:28:44;43.80;;;33.90;;
59093;SDS011;44880;52.814;18.270;2023-09-12T07:33:47;43.20;;;33.30;;
59093;SDS011;44880;52.814;18.270;2023-09-12T07:36:19;42.40;;;35.00;;
59093;SDS011;44880;52.814;18.270;2023-09-12T07:38:50;44.60;;;35.40;;
59093;SDS011;44880;52.814;18.270;2023-09-12T07:43:53;45.70;;;35.60;;
59093;SDS011;44880;52.814;18.270;2023-09-12T07:46:29;42.40;;;35.60;;
59093;SDS011;44880;52.814;18.270;2023-09-12T07:54:19;41.50;;;32.70;;
59093;SDS011;44880;52.814;18.270;2023-09-12T07:59:21;24.70;;;20.30;;
59093;SDS011;44880;52.814;18.270;2023-09-12T08:02:03;23.80;;;20.00;;
59093;SDS011;44880;52.814;18.270;2023-09-12T08:04:36;24.70;;;16.60;;
59093;SDS011;44880;52.814;18.270;2023-09-12T08:07:08;18.20;;;14.00;;
59093;SDS011;44880;52.814;18.270;2023-09-12T08:09:58;16.60;;;13.00;;
59093;SDS011;44880;52.814;18.270;2023-09-12T08:12:30;19.70;;;13.40;;
59093;SDS011;44880;52.814;18.270;2023-09-12T08:15:03;20.80;;;13.00;;
59093;SDS011;44880;52.814;18.270;2023-09-12T08:17:36;16.00;;;11.50;;
59093;SDS011;44880;52.814;18.270;2023-09-12T08:20:12;20.60;;;16.00;;
59093;SDS011;44880;52.814;18.270;2023-09-12T08:22:44;17.60;;;14.70;;
59093;SDS011;44880;52.814;18.270;2023-09-12T08:25:17;18.70;;;14.60;;
59093;SDS011;44880;52.814;18.270;2023-09-12T08:27:56;20.40;;;14.50;;
59093;SDS011;44880;52.814;18.270;2023-09-12T08:30:27;17.10;;;12.60;;
59093;SDS011;44880;52.814;18.270;2023-09-12T08:32:59;16.80;;;12.90;;
59093;SDS011;44880;52.814;18.270;2023-09-12T08:35:36;16.60;;;12.20;;
59093;SDS011;44880;52.814;18.270;2023-09-12T08:38:08;17.10;;;13.10;;
59093;SDS011;44880;52.814;18.270;2023-09-12T08:40:40;17.20;;;13.80;;
59093;SDS011;44880;52.814;18.270;2023-09-12T08:43:12;18.40;;;13.60;;
59093;SDS011;44880;52.814;18.270;2023-09-12T08:45:48;16.20;;;12.00;;
59093;SDS011;44880;52.814;18.270;2023-09-12T08:48:26;21.30;;;14.70;;
59093;SDS011;44880;52.814;18.270;2023-09-12T08:51:00;20.00;;;14.00;;
59093;SDS011;44880;52.814;18.270;2023-09-12T08:53:39;17.40;;;12.40;;
59093;SDS011;44880;52.814;18.270;2023-09-12T08:56:15;17.70;;;13.20;;
59093;SDS011;44880;52.814;18.270;2023-09-12T08:58:47;16.60;;;13.10;;
59093;SDS011;44880;52.814;18.270;2023-09-12T09:01:33;18.30;;;13.50;;
59093;SDS011;44880;52.814;18.270;2023-09-12T09:04:14;17.60;;;12.80;;
59093;SDS011;44880;52.814;18.270;2023-09-12T09:06:47;14.60;;;10.80;;
59093;SDS011;44880;52.814;18.270;2023-09-12T09:09:26;15.00;;;11.60;;
59093;SDS011;44880;52.814;18.270;2023-09-12T09:12:02;17.50;;;12.70;;
59093;SDS011;44880;52.814;18.270;2023-09-12T09:14:39;14.30;;;11.70;;
59093;SDS011;44880;52.814;18.270;2023-09-12T09:17:20;15.80;;;11.90;;
59093;SDS011;44880;52.814;18.270;2023-09-12T09:19:57;15.70;;;11.00;;
59093;SDS011;44880;52.814;18.270;2023-09-12T09:22:28;14.00;;;10.90;;
59093;SDS011;44880;52.814;18.270;2023-09-12T09:25:10;13.40;;;10.40;;
59093;SDS011;44880;52.814;18.270;2023-09-12T09:27:51;15.40;;;9.80;;
59093;SDS011;44880;52.814;18.270;2023-09-12T09:33:26;12.90;;;8.10;;
59093;SDS011;44880;52.814;18.270;2023-09-12T09:36:03;10.30;;;7.70;;
59093;SDS011;44880;52.814;18.270;2023-09-12T09:41:33;11.20;;;7.20;;
59093;SDS011;44880;52.814;18.270;2023-09-12T09:44:05;14.00;;;8.80;;
59093;SDS011;44880;52.814;18.270;2023-09-12T09:47:01;12.00;;;7.90;;
59093;SDS011;44880;52.814;18.270;2023-09-12T09:49:33;11.30;;;7.80;;
59093;SDS011;44880;52.814;18.270;2023-09-12T09:52:14;11.60;;;8.00;;
59093;SDS011;44880;52.814;18.270;2023-09-12T09:54:52;11.70;;;7.80;;
59093;SDS011;44880;52.814;18.270;2023-09-12T09:57:26;11.10;;;7.90;;
59093;SDS011;44880;52.814;18.270;2023-09-12T10:00:07;10.80;;;7.00;;
59093;SDS011;44880;52.814;18.270;2023-09-12T10:02:48;10.60;;;7.20;;
59093;SDS011;44880;52.814;18.270;2023-09-12T10:05:22;10.70;;;7.20;;
59093;SDS011;44880;52.814;18.270;2023-09-12T10:08:03;10.80;;;7.00;;
59093;SDS011;44880;52.814;18.270;2023-09-12T10:10:40;10.80;;;7.30;;
59093;SDS011;44880;52.814;18.270;2023-09-12T10:13:12;11.70;;;7.70;;
59093;SDS011;44880;52.814;18.270;2023-09-12T10:15:55;10.80;;;7.90;;
59093;SDS011;44880;52.814;18.270;2023-09-12T10:18:35;11.10;;;8.10;;
59093;SDS011;44880;52.814;18.270;2023-09-12T10:21:14;11.30;;;7.40;;
59093;SDS011;44880;52.814;18.270;2023-09-12T10:23:58;12.80;;;8.00;;
59093;SDS011;44880;52.814;18.270;2023-09-12T10:26:29;10.30;;;7.60;;
59093;SDS011;44880;52.814;18.270;2023-09-12T10:29:02;12.80;;;8.30;;
59093;SDS011;44880;52.814;18.270;2023-09-12T10:31:38;10.90;;;7.60;;
59093;SDS011;44880;52.814;18.270;2023-09-12T10:34:18;12.00;;;7.30;;
59093;SDS011;44880;52.814;18.270;2023-09-12T10:36:50;10.20;;;7.40;;
59093;SDS011;44880;52.814;18.270;2023-09-12T10:39:32;11.40;;;7.60;;
59093;SDS011;44880;52.814;18.270;2023-09-12T10:42:11;11.40;;;7.40;;
59093;SDS011;44880;52.814;18.270;2023-09-12T10:44:44;12.30;;;7.40;;
59093;SDS011;44880;52.814;18.270;2023-09-12T10:47:25;11.40;;;7.70;;
59093;SDS011;44880;52.814;18.270;2023-09-12T10:50:05;11.30;;;7.40;;
59093;SDS011;44880;52.814;18.270;2023-09-12T10:52:38;10.70;;;7.40;;
59093;SDS011;44880;52.814;18.270;2023-09-12T10:55:19;12.70;;;7.30;;
59093;SDS011;44880;52.814;18.270;2023-09-12T10:58:03;10.70;;;7.40;;
59093;SDS011;44880;52.814;18.270;2023-09-12T11:00:36;11.80;;;8.10;;
59093;SDS011;44880;52.814;18.270;2023-09-12T11:06:19;12.00;;;8.10;;
59093;SDS011;44880;52.814;18.270;2023-09-12T11:09:19;11.80;;;8.00;;
59093;SDS011;44880;52.814;18.270;2023-09-12T11:11:56;11.50;;;7.60;;
59093;SDS011;44880;52.814;18.270;2023-09-12T11:15:06;11.40;;;7.60;;
59093;SDS011;44880;52.814;18.270;2023-09-12T11:17:41;12.80;;;8.40;;
59093;SDS011;44880;52.814;18.270;2023-09-12T11:20:20;11.60;;;8.10;;
59093;SDS011;44880;52.814;18.270;2023-09-12T11:22:53;12.40;;;8.60;;
59093;SDS011;44880;52.814;18.270;2023-09-12T11:25:25;11.00;;;8.30;;
59093;SDS011;44880;52.814;18.270;2023-09-12T11:28:10;12.70;;;8.40;;
59093;SDS011;44880;52.814;18.270;2023-09-12T11:30:56;11.20;;;7.80;;
59093;SDS011;44880;52.814;18.270;2023-09-12T11:33:40;15.40;;;8.60;;
59093;SDS011;44880;52.814;18.270;2023-09-12T11:36:18;11.80;;;8.50;;
59093;SDS011;44880;52.814;18.270;2023-09-12T11:38:50;11.90;;;8.20;;
59093;SDS011;44880;52.814;18.270;2023-09-12T11:44:13;12.00;;;8.30;;
59093;SDS011;44880;52.814;18.270;2023-09-12T11:46:45;10.70;;;8.50;;
59093;SDS011;44880;52.814;18.270;2023-09-12T11:49:22;13.60;;;8.40;;
59093;SDS011;44880;52.814;18.270;2023-09-12T11:52:02;12.20;;;8.50;;
59093;SDS011;44880;52.814;18.270;2023-09-12T11:54:38;13.30;;;8.30;;
59093;SDS011;44880;52.814;18.270;2023-09-12T11:57:15;10.50;;;8.40;;
59093;SDS011;44880;52.814;18.270;2023-09-12T11:59:56;12.20;;;8.30;;
59093;SDS011;44880;52.814;18.270;2023-09-12T12:02:28;12.10;;;8.80;;
59093;SDS011;44880;52.814;18.270;2023-09-12T12:05:09;12.00;;;8.20;;
59093;SDS011;44880;52.814;18.270;2023-09-12T12:07:50;12.10;;;8.50;;
59093;SDS011;44880;52.814;18.270;2023-09-12T12:10:22;12.20;;;8.20;;
59093;SDS011;44880;52.814;18.270;2023-09-12T12:13:01;12.30;;;8.20;;
59093;SDS011;44880;52.814;18.270;2023-09-12T12:15:41;12.20;;;8.90;;
59093;SDS011;44880;52.814;18.270;2023-09-12T12:18:13;11.80;;;8.60;;
59093;SDS011;44880;52.814;18.270;2023-09-12T12:20:54;12.50;;;7.90;;
59093;SDS011;44880;52.814;18.270;2023-09-12T12:23:30;10.90;;;7.90;;
59093;SDS011;44880;52.814;18.270;2023-09-12T12:26:05;11.20;;;8.20;;
59093;SDS011;44880;52.814;18.270;2023-09-12T12:28:46;11.80;;;8.50;;
59093;SDS011;44880;52.814;18.270;2023-09-12T12:31:18;11.40;;;8.40;;
59093;SDS011;44880;52.814;18.270;2023-09-12T12:33:54;11.60;;;8.60;;
59093;SDS011;44880;52.814;18.270;2023-09-12T12:36:28;13.60;;;8.70;;
59093;SDS011;44880;52.814;18.270;2023-09-12T12:39:15;11.00;;;8.00;;
59093;SDS011;44880;52.814;18.270;2023-09-12T12:41:47;11.00;;;7.90;;
59093;SDS011;44880;52.814;18.270;2023-09-12T12:44:21;12.10;;;8.30;;
59093;SDS011;44880;52.814;18.270;2023-09-12T12:47:19;12.30;;;8.20;;
59093;SDS011;44880;52.814;18.270;2023-09-12T12:50:00;10.80;;;8.00;;
59093;SDS011;44880;52.814;18.270;2023-09-12T12:52:43;13.50;;;8.40;;
59093;SDS011;44880;52.814;18.270;2023-09-12T12:55:20;12.50;;;8.00;;
59093;SDS011;44880;52.814;18.270;2023-09-12T12:57:52;12.80;;;8.40;;
59093;SDS011;44880;52.814;18.270;2023-09-12T13:00:35;11.30;;;7.90;;
59093;SDS011;44880;52.814;18.270;2023-09-12T13:03:07;12.50;;;8.00;;
59093;SDS011;44880;52.814;18.270;2023-09-12T13:05:47;12.00;;;8.00;;
59093;SDS011;44880;52.814;18.270;2023-09-12T13:08:34;10.90;;;7.90;;
59093;SDS011;44880;52.814;18.270;2023-09-12T13:11:06;12.30;;;7.90;;
59093;SDS011;44880;52.814;18.270;2023-09-12T13:13:38;10.20;;;7.60;;
59093;SDS011;44880;52.814;18.270;2023-09-12T13:16:37;10.70;;;8.10;;
59093;SDS011;44880;52.814;18.270;2023-09-12T13:19:09;12.30;;;7.90;;
59093;SDS011;44880;52.814;18.270;2023-09-12T13:24:31;11.20;;;7.30;;
59093;SDS011;44880;52.814;18.270;2023-09-12T13:27:03;10.90;;;8.00;;
59093;SDS011;44880;52.814;18.270;2023-09-12T13:29:53;11.60;;;8.40;;
59093;SDS011;44880;52.814;18.270;2023-09-12T13:32:25;11.10;;;8.10;;
59093;SDS011;44880;52.814;18.270;2023-09-12T13:35:01;11.80;;;8.40;;
59093;SDS011;44880;52.814;18.270;2023-09-12T13:37:44;11.20;;;7.80;;
59093;SDS011;44880;52.814;18.270;2023-09-12T13:40:16;11.50;;;7.60;;
59093;SDS011;44880;52.814;18.270;2023-09-12T13:42:51;11.60;;;8.30;;
59093;SDS011;44880;52.814;18.270;2023-09-12T13:45:26;10.90;;;8.00;;
59093;SDS011;44880;52.814;18.270;2023-09-12T13:48:13;12.90;;;8.10;;
59093;SDS011;44880;52.814;18.270;2023-09-12T13:50:48;12.70;;;8.00;;
59093;SDS011;44880;52.814;18.270;2023-09-12T13:53:29;10.90;;;8.10;;
59093;SDS011;44880;52.814;18.270;2023-09-12T13:56:04;10.70;;;7.90;;
59093;SDS011;44880;52.814;18.270;2023-09-12T13:58:39;10.80;;;7.70;;
59093;SDS011;44880;52.814;18.270;2023-09-12T14:01:19;10.90;;;7.60;;
59093;SDS011;44880;52.814;18.270;2023-09-12T14:03:52;12.30;;;8.20;;
59093;SDS011;44880;52.814;18.270;2023-09-12T14:06:23;10.80;;;8.00;;
59093;SDS011;44880;52.814;18.270;2023-09-12T14:09:13;12.60;;;8.20;;
59093;SDS011;44880;52.814;18.270;2023-09-12T14:11:45;11.10;;;8.00;;
59093;SDS011;44880;52.814;18.270;2023-09-12T14:14:18;11.20;;;8.00;;
59093;SDS011;44880;52.814;18.270;2023-09-12T14:16:58;11.40;;;7.80;;
59093;SDS011;44880;52.814;18.270;2023-09-12T14:20:13;12.00;;;8.30;;
59093;SDS011;44880;52.814;18.270;2023-09-12T14:25:38;11.40;;;7.70;;
59093;SDS011;44880;52.814;18.270;2023-09-12T14:28:13;11.20;;;7.50;;
59093;SDS011;44880;52.814;18.270;2023-09-12T14:31:09;11.40;;;7.70;;
59093;SDS011;44880;52.814;18.270;2023-09-12T14:36:44;10.60;;;7.80;;
59093;SDS011;44880;52.814;18.270;2023-09-12T14:39:16;10.20;;;7.20;;
59093;SDS011;44880;52.814;18.270;2023-09-12T14:44:40;11.70;;;7.80;;
59093;SDS011;44880;52.814;18.270;2023-09-12T14:47:13;11.50;;;8.20;;
59093;SDS011;44880;52.814;18.270;2023-09-12T14:50:18;10.70;;;8.10;;
59093;SDS011;44880;52.814;18.270;2023-09-12T14:55:56;12.10;;;7.70;;
59093;SDS011;44880;52.814;18.270;2023-09-12T14:58:34;9.80;;;7.90;;
59093;SDS011;44880;52.814;18.270;2023-09-12T15:01:34;11.80;;;7.80;;
59093;SDS011;44880;52.814;18.270;2023-09-12T15:04:16;10.10;;;7.40;;
59093;SDS011;44880;52.814;18.270;2023-09-12T15:06:57;11.80;;;8.00;;
59093;SDS011;44880;52.814;18.270;2023-09-12T15:09:30;11.40;;;8.10;;
59093;SDS011;44880;52.814;18.270;2023-09-12T15:12:02;11.40;;;8.20;;
59093;SDS011;44880;52.814;18.270;2023-09-12T15:15:02;12.90;;;8.30;;
59093;SDS011;44880;52.814;18.270;2023-09-12T15:17:36;10.90;;;7.70;;
59093;SDS011;44880;52.814;18.270;2023-09-12T15:20:28;11.40;;;7.70;;
59093;SDS011;44880;52.814;18.270;2023-09-12T15:23:00;11.20;;;7.30;;
59093;SDS011;44880;52.814;18.270;2023-09-12T15:28:39;12.90;;;8.10;;
59093;SDS011;44880;52.814;18.270;2023-09-12T15:31:11;13.90;;;9.30;;
59093;SDS011;44880;52.814;18.270;2023-09-12T15:40:57;128.90;;;71.90;;
59093;SDS011;44880;52.814;18.270;2023-09-12T15:43:34;27.50;;;17.30;;
59093;SDS011;44880;52.814;18.270;2023-09-12T15:46:37;19.70;;;9.20;;
59093;SDS011;44880;52.814;18.270;2023-09-12T15:49:11;27.30;;;10.10;;
59093;SDS011;44880;52.814;18.270;2023-09-12T15:52:01;15.80;;;8.40;;
59093;SDS011;44880;52.814;18.270;2023-09-12T15:54:37;10.80;;;7.60;;
59093;SDS011;44880;52.814;18.270;2023-09-12T15:57:25;14.10;;;7.90;;
59093;SDS011;44880;52.814;18.270;2023-09-12T16:00:11;12.70;;;7.80;;
59093;SDS011;44880;52.814;18.270;2023-09-12T16:02:48;12.40;;;7.90;;
59093;SDS011;44880;52.814;18.270;2023-09-12T16:05:48;13.40;;;8.20;;
59093;SDS011;44880;52.814;18.270;2023-09-12T16:08:22;13.40;;;8.20;;
59093;SDS011;44880;52.814;18.270;2023-09-12T16:11:09;14.50;;;7.90;;
59093;SDS011;44880;52.814;18.270;2023-09-12T16:13:41;22.80;;;9.20;;
59093;SDS011;44880;52.814;18.270;2023-09-12T16:16:22;14.80;;;9.30;;
59093;SDS011;44880;52.814;18.270;2023-09-12T16:19:19;12.40;;;8.90;;
59093;SDS011;44880;52.814;18.270;2023-09-12T16:21:55;17.90;;;12.50;;
59093;SDS011;44880;52.814;18.270;2023-09-12T16:24:28;78.00;;;49.60;;
59093;SDS011;44880;52.814;18.270;2023-09-12T16:27:09;47.80;;;32.10;;
59093;SDS011;44880;52.814;18.270;2023-09-12T16:29:46;66.60;;;41.60;;
59093;SDS011;44880;52.814;18.270;2023-09-12T16:32:46;74.40;;;47.70;;
59093;SDS011;44880;52.814;18.270;2023-09-12T16:38:34;35.40;;;19.80;;
59093;SDS011;44880;52.814;18.270;2023-09-12T16:41:34;90.90;;;22.50;;
59093;SDS011;44880;52.814;18.270;2023-09-12T16:44:12;47.60;;;19.50;;
59093;SDS011;44880;52.814;18.270;2023-09-12T16:46:46;39.40;;;15.30;;
59093;SDS011;44880;52.814;18.270;2023-09-12T16:49:40;19.50;;;11.30;;
59093;SDS011;44880;52.814;18.270;2023-09-12T16:52:22;18.10;;;11.20;;
59093;SDS011;44880;52.814;18.270;2023-09-12T16:55:19;17.60;;;10.50;;
59093;SDS011;44880;52.814;18.270;2023-09-12T16:58:15;16.10;;;10.70;;
59093;SDS011;44880;52.814;18.270;2023-09-12T17:00:58;22.00;;;11.40;;
59093;SDS011;44880;52.814;18.270;2023-09-12T17:24:00;115.20;;;52.90;;
59093;SDS011;44880;52.814;18.270;2023-09-12T17:26:33;43.20;;;25.30;;
59093;SDS011;44880;52.814;18.270;2023-09-12T17:29:08;25.70;;;14.80;;
59093;SDS011;44880;52.814;18.270;2023-09-12T17:31:41;19.60;;;13.30;;
59093;SDS011;44880;52.814;18.270;2023-09-12T17:34:14;22.40;;;13.10;;
59093;SDS011;44880;52.814;18.270;2023-09-12T17:36:50;21.20;;;13.80;;
59093;SDS011;44880;52.814;18.270;2023-09-12T17:39:22;21.80;;;13.10;;
59093;SDS011;44880;52.814;18.270;2023-09-12T17:44:29;19.00;;;13.30;;
59093;SDS011;44880;52.814;18.270;2023-09-12T17:47:09;18.40;;;13.00;;
59093;SDS011;44880;52.814;18.270;2023-09-12T17:49:48;34.30;;;16.00;;
59093;SDS011;44880;52.814;18.270;2023-09-12T17:52:23;27.00;;;16.10;;
59093;SDS011;44880;52.814;18.270;2023-09-12T17:54:56;26.00;;;16.50;;
59093;SDS011;44880;52.814;18.270;2023-09-12T17:57:30;24.80;;;15.80;;
59093;SDS011;44880;52.814;18.270;2023-09-12T18:00:05;26.20;;;15.80;;